sensor_id;sensor_type;location;lat;lon;timestamp;P1;durP1;ratioP1;P2;durP2;ratioP2
3407;SDS011;1717;50.240;8.406;2022-08-19T00:00:49;17.90;;;16.07;;
3407;SDS011;1717;50.240;8.406;2022-08-19T00:03:16;19.30;;;17.30;;
3407;SDS011;1717;50.240;8.406;2022-08-19T00:05:43;22.83;;;17.70;;
3407;SDS011;1717;50.240;8.406;2022-08-19T00:08:10;19.80;;;16.37;;
3407;SDS011;1717;50.240;8.406;2022-08-19T00:10:38;18.60;;;16.70;;
3407;SDS011;1717;50.240;8.406;2022-08-19T00:13:05;19.13;;;16.27;;
3407;SDS011;1717;50.240;8.406;2022-08-19T00:15:32;18.20;;;16.20;;
3407;SDS011;1717;50.240;8.406;2022-08-19T00:17:59;19.10;;;17.10;;
3407;SDS011;1717;50.240;8.406;2022-08-19T00:20:26;18.37;;;15.97;;
3407;SDS011;1717;50.240;8.406;2022-08-19T00:22:53;17.20;;;14.67;;
3407;SDS011;1717;50.240;8.406;2022-08-19T00:25:20;18.43;;;16.50;;
3407;SDS011;1717;50.240;8.406;2022-08-19T00:27:49;18.67;;;16.37;;
3407;SDS011;1717;50.240;8.406;2022-08-19T00:30:16;18.90;;;15.70;;
3407;SDS011;1717;50.240;8.406;2022-08-19T00:32:43;18.30;;;16.50;;
3407;SDS011;1717;50.240;8.406;2022-08-19T00:35:10;17.67;;;15.90;;
3407;SDS011;1717;50.240;8.406;2022-08-19T00:37:37;17.60;;;15.80;;
3407;SDS011;1717;50.240;8.406;2022-08-19T00:40:06;15.67;;;14.10;;
3407;SDS011;1717;50.240;8.406;2022-08-19T00:42:33;17.83;;;14.37;;
3407;SDS011;1717;50.240;8.406;2022-08-19T00:45:02;17.10;;;15.40;;
3407;SDS011;1717;50.240;8.406;2022-08-19T00:47:34;16.27;;;14.57;;
3407;SDS011;1717;50.240;8.406;2022-08-19T00:50:01;17.63;;;15.83;;
3407;SDS011;1717;50.240;8.406;2022-08-19T00:52:29;17.43;;;15.63;;
3407;SDS011;1717;50.240;8.406;2022-08-19T00:54:59;15.80;;;14.10;;
3407;SDS011;1717;50.240;8.406;2022-08-19T00:57:28;16.83;;;14.90;;
3407;SDS011;1717;50.240;8.406;2022-08-19T01:00:04;18.40;;;15.40;;
3407;SDS011;1717;50.240;8.406;2022-08-19T01:02:33;16.63;;;14.90;;
3407;SDS011;1717;50.240;8.406;2022-08-19T01:05:00;17.40;;;15.60;;
3407;SDS011;1717;50.240;8.406;2022-08-19T01:07:29;17.60;;;15.80;;
3407;SDS011;1717;50.240;8.406;2022-08-19T01:09:56;18.97;;;16.97;;
3407;SDS011;1717;50.240;8.406;2022-08-19T01:12:23;17.67;;;15.87;;
3407;SDS011;1717;50.240;8.406;2022-08-19T01:14:50;17.90;;;14.50;;
3407;SDS011;1717;50.240;8.406;2022-08-19T01:17:19;17.27;;;15.57;;
3407;SDS011;1717;50.240;8.406;2022-08-19T01:19:47;16.07;;;14.27;;
3407;SDS011;1717;50.240;8.406;2022-08-19T01:22:15;17.80;;;16.00;;
3407;SDS011;1717;50.240;8.406;2022-08-19T01:24:48;16.53;;;14.87;;
3407;SDS011;1717;50.240;8.406;2022-08-19T01:27:15;17.00;;;15.27;;
3407;SDS011;1717;50.240;8.406;2022-08-19T01:29:43;18.63;;;16.70;;
3407;SDS011;1717;50.240;8.406;2022-08-19T01:32:11;17.80;;;15.70;;
3407;SDS011;1717;50.240;8.406;2022-08-19T01:34:39;18.93;;;16.97;;
3407;SDS011;1717;50.240;8.406;2022-08-19T01:37:12;18.20;;;16.23;;
3407;SDS011;1717;50.240;8.406;2022-08-19T01:39:40;20.00;;;17.40;;
3407;SDS011;1717;50.240;8.406;2022-08-19T01:42:09;21.37;;;16.47;;
3407;SDS011;1717;50.240;8.406;2022-08-19T01:44:37;20.03;;;17.60;;
3407;SDS011;1717;50.240;8.406;2022-08-19T01:47:05;18.47;;;16.60;;
3407;SDS011;1717;50.240;8.406;2022-08-19T01:49:34;17.90;;;15.43;;
3407;SDS011;1717;50.240;8.406;2022-08-19T01:52:01;18.20;;;16.30;;
3407;SDS011;1717;50.240;8.406;2022-08-19T01:54:29;18.87;;;16.90;;
3407;SDS011;1717;50.240;8.406;2022-08-19T01:56:59;18.73;;;16.83;;
3407;SDS011;1717;50.240;8.406;2022-08-19T01:59:30;19.77;;;17.63;;
3407;SDS011;1717;50.240;8.406;2022-08-19T02:01:58;20.00;;;17.80;;
3407;SDS011;1717;50.240;8.406;2022-08-19T02:04:26;18.80;;;17.00;;
3407;SDS011;1717;50.240;8.406;2022-08-19T02:06:52;20.17;;;18.07;;
3407;SDS011;1717;50.240;8.406;2022-08-19T02:09:19;18.80;;;16.90;;
3407;SDS011;1717;50.240;8.406;2022-08-19T02:11:46;17.47;;;15.63;;
3407;SDS011;1717;50.240;8.406;2022-08-19T02:14:13;19.93;;;17.93;;
3407;SDS011;1717;50.240;8.406;2022-08-19T02:16:41;18.57;;;16.57;;
3407;SDS011;1717;50.240;8.406;2022-08-19T02:19:08;20.13;;;17.47;;
3407;SDS011;1717;50.240;8.406;2022-08-19T02:21:35;18.37;;;16.50;;
3407;SDS011;1717;50.240;8.406;2022-08-19T02:24:03;21.33;;;19.10;;
3407;SDS011;1717;50.240;8.406;2022-08-19T02:26:31;19.70;;;17.60;;
3407;SDS011;1717;50.240;8.406;2022-08-19T02:28:58;20.03;;;17.93;;
3407;SDS011;1717;50.240;8.406;2022-08-19T02:31:25;20.33;;;18.13;;
3407;SDS011;1717;50.240;8.406;2022-08-19T02:33:55;21.77;;;19.50;;
3407;SDS011;1717;50.240;8.406;2022-08-19T02:36:23;21.40;;;18.93;;
3407;SDS011;1717;50.240;8.406;2022-08-19T02:38:51;19.30;;;17.00;;
3407;SDS011;1717;50.240;8.406;2022-08-19T02:41:18;21.63;;;19.33;;
3407;SDS011;1717;50.240;8.406;2022-08-19T02:43:46;20.70;;;18.70;;
3407;SDS011;1717;50.240;8.406;2022-08-19T02:46:14;22.30;;;19.70;;
3407;SDS011;1717;50.240;8.406;2022-08-19T02:48:46;20.60;;;18.50;;
3407;SDS011;1717;50.240;8.406;2022-08-19T02:51:18;21.17;;;18.20;;
3407;SDS011;1717;50.240;8.406;2022-08-19T02:53:46;21.07;;;18.67;;
3407;SDS011;1717;50.240;8.406;2022-08-19T02:56:14;23.60;;;17.80;;
3407;SDS011;1717;50.240;8.406;2022-08-19T02:58:41;21.03;;;18.80;;
3407;SDS011;1717;50.240;8.406;2022-08-19T03:01:09;19.90;;;17.87;;
3407;SDS011;1717;50.240;8.406;2022-08-19T03:03:37;19.83;;;17.77;;
3407;SDS011;1717;50.240;8.406;2022-08-19T03:06:08;19.30;;;17.50;;
3407;SDS011;1717;50.240;8.406;2022-08-19T03:08:39;20.30;;;18.20;;
3407;SDS011;1717;50.240;8.406;2022-08-19T03:11:11;20.40;;;18.33;;
3407;SDS011;1717;50.240;8.406;2022-08-19T03:13:39;19.40;;;17.37;;
3407;SDS011;1717;50.240;8.406;2022-08-19T03:16:08;20.97;;;18.20;;
3407;SDS011;1717;50.240;8.406;2022-08-19T03:18:36;18.80;;;16.87;;
3407;SDS011;1717;50.240;8.406;2022-08-19T03:21:03;21.17;;;18.80;;
3407;SDS011;1717;50.240;8.406;2022-08-19T03:23:30;21.27;;;19.00;;
3407;SDS011;1717;50.240;8.406;2022-08-19T03:26:02;19.80;;;17.43;;
3407;SDS011;1717;50.240;8.406;2022-08-19T03:28:30;18.63;;;16.73;;
3407;SDS011;1717;50.240;8.406;2022-08-19T03:30:58;21.83;;;17.13;;
3407;SDS011;1717;50.240;8.406;2022-08-19T03:33:27;19.20;;;17.27;;
3407;SDS011;1717;50.240;8.406;2022-08-19T03:36:02;19.87;;;17.73;;
3407;SDS011;1717;50.240;8.406;2022-08-19T03:38:32;21.87;;;18.50;;
3407;SDS011;1717;50.240;8.406;2022-08-19T03:41:03;20.00;;;17.90;;
3407;SDS011;1717;50.240;8.406;2022-08-19T03:43:33;20.50;;;18.30;;
3407;SDS011;1717;50.240;8.406;2022-08-19T03:46:01;22.87;;;19.50;;
3407;SDS011;1717;50.240;8.406;2022-08-19T03:48:30;20.07;;;16.80;;
3407;SDS011;1717;50.240;8.406;2022-08-19T03:50:58;20.40;;;18.20;;
3407;SDS011;1717;50.240;8.406;2022-08-19T03:53:26;25.30;;;17.40;;
3407;SDS011;1717;50.240;8.406;2022-08-19T03:55:53;18.97;;;16.13;;
3407;SDS011;1717;50.240;8.406;2022-08-19T03:58:22;19.73;;;17.63;;
3407;SDS011;1717;50.240;8.406;2022-08-19T04:00:49;18.80;;;16.80;;
3407;SDS011;1717;50.240;8.406;2022-08-19T04:03:16;20.47;;;17.00;;
3407;SDS011;1717;50.240;8.406;2022-08-19T04:05:45;20.87;;;17.33;;
3407;SDS011;1717;50.240;8.406;2022-08-19T04:08:13;20.10;;;17.97;;
3407;SDS011;1717;50.240;8.406;2022-08-19T04:10:45;19.30;;;16.67;;
3407;SDS011;1717;50.240;8.406;2022-08-19T04:13:12;21.23;;;18.33;;
3407;SDS011;1717;50.240;8.406;2022-08-19T04:15:41;19.67;;;17.57;;
3407;SDS011;1717;50.240;8.406;2022-08-19T04:18:11;20.93;;;18.60;;
3407;SDS011;1717;50.240;8.406;2022-08-19T04:20:41;21.77;;;18.30;;
3407;SDS011;1717;50.240;8.406;2022-08-19T04:23:09;20.23;;;17.33;;
3407;SDS011;1717;50.240;8.406;2022-08-19T04:25:37;18.23;;;16.10;;
3407;SDS011;1717;50.240;8.406;2022-08-19T04:28:06;19.77;;;17.77;;
3407;SDS011;1717;50.240;8.406;2022-08-19T04:30:38;19.13;;;16.53;;
3407;SDS011;1717;50.240;8.406;2022-08-19T04:33:08;19.57;;;17.40;;
3407;SDS011;1717;50.240;8.406;2022-08-19T04:35:36;18.30;;;16.40;;
3407;SDS011;1717;50.240;8.406;2022-08-19T04:38:04;19.53;;;17.23;;
3407;SDS011;1717;50.240;8.406;2022-08-19T04:40:31;18.63;;;16.70;;
3407;SDS011;1717;50.240;8.406;2022-08-19T04:43:16;17.70;;;15.93;;
3407;SDS011;1717;50.240;8.406;2022-08-19T04:45:44;18.33;;;16.43;;
3407;SDS011;1717;50.240;8.406;2022-08-19T04:48:12;17.63;;;15.40;;
3407;SDS011;1717;50.240;8.406;2022-08-19T04:50:39;18.90;;;16.50;;
3407;SDS011;1717;50.240;8.406;2022-08-19T04:53:08;17.43;;;15.73;;
3407;SDS011;1717;50.240;8.406;2022-08-19T04:55:37;18.00;;;15.03;;
3407;SDS011;1717;50.240;8.406;2022-08-19T04:58:05;17.27;;;15.47;;
3407;SDS011;1717;50.240;8.406;2022-08-19T05:00:32;17.27;;;15.47;;
3407;SDS011;1717;50.240;8.406;2022-08-19T05:03:00;20.23;;;16.03;;
3407;SDS011;1717;50.240;8.406;2022-08-19T05:05:27;17.47;;;15.67;;
3407;SDS011;1717;50.240;8.406;2022-08-19T05:07:56;16.47;;;14.77;;
3407;SDS011;1717;50.240;8.406;2022-08-19T05:10:23;18.67;;;16.00;;
3407;SDS011;1717;50.240;8.406;2022-08-19T05:12:50;17.63;;;15.80;;
3407;SDS011;1717;50.240;8.406;2022-08-19T05:15:17;17.50;;;15.50;;
3407;SDS011;1717;50.240;8.406;2022-08-19T05:17:44;16.97;;;15.27;;
3407;SDS011;1717;50.240;8.406;2022-08-19T05:20:27;17.83;;;15.93;;
3407;SDS011;1717;50.240;8.406;2022-08-19T05:23:11;18.10;;;15.53;;
3407;SDS011;1717;50.240;8.406;2022-08-19T05:25:42;17.00;;;15.03;;
3407;SDS011;1717;50.240;8.406;2022-08-19T05:28:09;15.77;;;14.17;;
3407;SDS011;1717;50.240;8.406;2022-08-19T05:30:36;18.73;;;16.50;;
3407;SDS011;1717;50.240;8.406;2022-08-19T05:33:03;18.20;;;16.13;;
3407;SDS011;1717;50.240;8.406;2022-08-19T05:35:31;17.73;;;15.83;;
3407;SDS011;1717;50.240;8.406;2022-08-19T05:37:58;20.53;;;17.03;;
3407;SDS011;1717;50.240;8.406;2022-08-19T05:40:24;17.80;;;15.90;;
3407;SDS011;1717;50.240;8.406;2022-08-19T05:42:51;17.00;;;15.20;;
3407;SDS011;1717;50.240;8.406;2022-08-19T05:45:18;19.37;;;17.03;;
3407;SDS011;1717;50.240;8.406;2022-08-19T05:47:46;20.47;;;18.23;;
3407;SDS011;1717;50.240;8.406;2022-08-19T05:50:13;19.33;;;17.30;;
3407;SDS011;1717;50.240;8.406;2022-08-19T05:52:43;21.87;;;18.80;;
3407;SDS011;1717;50.240;8.406;2022-08-19T05:55:10;20.67;;;18.20;;
3407;SDS011;1717;50.240;8.406;2022-08-19T05:57:38;20.33;;;17.30;;
3407;SDS011;1717;50.240;8.406;2022-08-19T06:00:06;20.03;;;17.47;;
3407;SDS011;1717;50.240;8.406;2022-08-19T06:02:35;24.67;;;20.20;;
3407;SDS011;1717;50.240;8.406;2022-08-19T06:05:02;20.87;;;18.43;;
3407;SDS011;1717;50.240;8.406;2022-08-19T06:07:31;20.67;;;18.57;;
3407;SDS011;1717;50.240;8.406;2022-08-19T06:09:59;22.83;;;20.03;;
3407;SDS011;1717;50.240;8.406;2022-08-19T06:12:26;22.00;;;19.60;;
3407;SDS011;1717;50.240;8.406;2022-08-19T06:14:56;18.83;;;16.97;;
3407;SDS011;1717;50.240;8.406;2022-08-19T06:17:23;21.80;;;18.80;;
3407;SDS011;1717;50.240;8.406;2022-08-19T06:19:51;20.70;;;18.60;;
3407;SDS011;1717;50.240;8.406;2022-08-19T06:22:18;21.60;;;19.13;;
3407;SDS011;1717;50.240;8.406;2022-08-19T06:24:44;21.50;;;19.17;;
3407;SDS011;1717;50.240;8.406;2022-08-19T06:27:13;24.10;;;18.47;;
3407;SDS011;1717;50.240;8.406;2022-08-19T06:29:40;22.77;;;19.37;;
3407;SDS011;1717;50.240;8.406;2022-08-19T06:32:08;21.03;;;18.83;;
3407;SDS011;1717;50.240;8.406;2022-08-19T06:34:36;19.87;;;17.87;;
3407;SDS011;1717;50.240;8.406;2022-08-19T06:37:03;19.37;;;17.30;;
3407;SDS011;1717;50.240;8.406;2022-08-19T06:39:31;20.33;;;18.27;;
3407;SDS011;1717;50.240;8.406;2022-08-19T06:42:03;21.70;;;18.90;;
3407;SDS011;1717;50.240;8.406;2022-08-19T06:44:36;17.70;;;15.80;;
3407;SDS011;1717;50.240;8.406;2022-08-19T06:47:05;20.00;;;17.90;;
3407;SDS011;1717;50.240;8.406;2022-08-19T06:49:33;20.70;;;18.53;;
3407;SDS011;1717;50.240;8.406;2022-08-19T06:52:01;19.10;;;17.10;;
3407;SDS011;1717;50.240;8.406;2022-08-19T06:54:29;19.50;;;16.50;;
3407;SDS011;1717;50.240;8.406;2022-08-19T06:56:57;18.57;;;16.80;;
3407;SDS011;1717;50.240;8.406;2022-08-19T06:59:28;20.83;;;16.73;;
3407;SDS011;1717;50.240;8.406;2022-08-19T07:01:58;18.10;;;15.60;;
3407;SDS011;1717;50.240;8.406;2022-08-19T07:04:27;17.67;;;15.87;;
3407;SDS011;1717;50.240;8.406;2022-08-19T07:06:57;20.43;;;16.40;;
3407;SDS011;1717;50.240;8.406;2022-08-19T07:09:25;16.27;;;14.67;;
3407;SDS011;1717;50.240;8.406;2022-08-19T07:11:53;15.33;;;13.83;;
3407;SDS011;1717;50.240;8.406;2022-08-19T07:14:21;16.43;;;13.90;;
3407;SDS011;1717;50.240;8.406;2022-08-19T07:16:50;21.33;;;14.70;;
3407;SDS011;1717;50.240;8.406;2022-08-19T07:19:21;16.03;;;14.33;;
3407;SDS011;1717;50.240;8.406;2022-08-19T07:21:51;16.33;;;14.67;;
3407;SDS011;1717;50.240;8.406;2022-08-19T07:24:19;14.57;;;13.10;;
3407;SDS011;1717;50.240;8.406;2022-08-19T07:26:49;14.60;;;13.10;;
3407;SDS011;1717;50.240;8.406;2022-08-19T07:29:17;14.67;;;13.20;;
3407;SDS011;1717;50.240;8.406;2022-08-19T07:31:48;15.17;;;13.67;;
3407;SDS011;1717;50.240;8.406;2022-08-19T07:34:16;13.60;;;12.30;;
3407;SDS011;1717;50.240;8.406;2022-08-19T07:36:44;13.87;;;12.50;;
3407;SDS011;1717;50.240;8.406;2022-08-19T07:39:12;12.80;;;11.57;;
3407;SDS011;1717;50.240;8.406;2022-08-19T07:41:47;14.90;;;12.97;;
3407;SDS011;1717;50.240;8.406;2022-08-19T07:44:15;15.30;;;13.70;;
3407;SDS011;1717;50.240;8.406;2022-08-19T07:46:45;13.53;;;11.90;;
3407;SDS011;1717;50.240;8.406;2022-08-19T07:49:14;13.47;;;11.70;;
3407;SDS011;1717;50.240;8.406;2022-08-19T07:51:45;12.70;;;11.40;;
3407;SDS011;1717;50.240;8.406;2022-08-19T07:54:14;12.80;;;11.60;;
3407;SDS011;1717;50.240;8.406;2022-08-19T07:56:41;14.60;;;12.37;;
3407;SDS011;1717;50.240;8.406;2022-08-19T07:59:08;13.43;;;12.20;;
3407;SDS011;1717;50.240;8.406;2022-08-19T08:01:35;13.63;;;12.43;;
3407;SDS011;1717;50.240;8.406;2022-08-19T08:04:05;17.43;;;14.23;;
3407;SDS011;1717;50.240;8.406;2022-08-19T08:06:52;16.90;;;12.13;;
3407;SDS011;1717;50.240;8.406;2022-08-19T08:09:43;15.37;;;12.57;;
3407;SDS011;1717;50.240;8.406;2022-08-19T08:12:12;16.57;;;14.37;;
3407;SDS011;1717;50.240;8.406;2022-08-19T08:14:42;16.60;;;13.50;;
3407;SDS011;1717;50.240;8.406;2022-08-19T08:17:12;23.50;;;13.30;;
3407;SDS011;1717;50.240;8.406;2022-08-19T08:19:41;16.47;;;11.10;;
3407;SDS011;1717;50.240;8.406;2022-08-19T08:22:10;13.40;;;12.13;;
3407;SDS011;1717;50.240;8.406;2022-08-19T08:25:00;15.37;;;13.70;;
3407;SDS011;1717;50.240;8.406;2022-08-19T08:27:29;17.07;;;14.90;;
3407;SDS011;1717;50.240;8.406;2022-08-19T08:29:56;19.10;;;15.67;;
3407;SDS011;1717;50.240;8.406;2022-08-19T08:32:23;17.47;;;15.60;;
3407;SDS011;1717;50.240;8.406;2022-08-19T08:34:50;20.70;;;14.47;;
3407;SDS011;1717;50.240;8.406;2022-08-19T08:37:20;16.93;;;13.27;;
3407;SDS011;1717;50.240;8.406;2022-08-19T08:39:47;20.70;;;16.53;;
3407;SDS011;1717;50.240;8.406;2022-08-19T08:42:16;17.27;;;14.97;;
3407;SDS011;1717;50.240;8.406;2022-08-19T08:44:53;18.03;;;15.50;;
3407;SDS011;1717;50.240;8.406;2022-08-19T08:47:25;17.50;;;15.77;;
3407;SDS011;1717;50.240;8.406;2022-08-19T08:49:54;17.27;;;15.13;;
3407;SDS011;1717;50.240;8.406;2022-08-19T08:52:28;16.50;;;14.80;;
3407;SDS011;1717;50.240;8.406;2022-08-19T08:54:57;18.23;;;15.60;;
3407;SDS011;1717;50.240;8.406;2022-08-19T08:57:27;17.67;;;15.80;;
3407;SDS011;1717;50.240;8.406;2022-08-19T08:59:57;17.43;;;15.73;;
3407;SDS011;1717;50.240;8.406;2022-08-19T09:02:27;19.30;;;17.27;;
3407;SDS011;1717;50.240;8.406;2022-08-19T09:04:54;19.03;;;17.03;;
3407;SDS011;1717;50.240;8.406;2022-08-19T09:07:23;19.90;;;17.10;;
3407;SDS011;1717;50.240;8.406;2022-08-19T09:10:02;18.80;;;16.93;;
3407;SDS011;1717;50.240;8.406;2022-08-19T09:12:38;18.60;;;16.67;;
3407;SDS011;1717;50.240;8.406;2022-08-19T09:15:15;15.73;;;14.23;;
3407;SDS011;1717;50.240;8.406;2022-08-19T09:17:48;18.27;;;16.37;;
3407;SDS011;1717;50.240;8.406;2022-08-19T09:20:15;17.23;;;15.60;;
3407;SDS011;1717;50.240;8.406;2022-08-19T09:22:45;19.20;;;17.30;;
3407;SDS011;1717;50.240;8.406;2022-08-19T09:25:15;19.17;;;16.83;;
3407;SDS011;1717;50.240;8.406;2022-08-19T09:27:47;20.03;;;17.07;;
3407;SDS011;1717;50.240;8.406;2022-08-19T09:30:15;17.40;;;15.70;;
3407;SDS011;1717;50.240;8.406;2022-08-19T09:32:44;19.73;;;16.80;;
3407;SDS011;1717;50.240;8.406;2022-08-19T09:35:12;18.30;;;16.60;;
3407;SDS011;1717;50.240;8.406;2022-08-19T09:37:40;18.30;;;16.60;;
3407;SDS011;1717;50.240;8.406;2022-08-19T09:40:09;17.67;;;15.80;;
3407;SDS011;1717;50.240;8.406;2022-08-19T09:42:38;17.57;;;15.90;;
3407;SDS011;1717;50.240;8.406;2022-08-19T09:45:06;18.03;;;16.13;;
3407;SDS011;1717;50.240;8.406;2022-08-19T09:47:33;17.40;;;15.70;;
3407;SDS011;1717;50.240;8.406;2022-08-19T09:50:03;20.03;;;16.00;;
3407;SDS011;1717;50.240;8.406;2022-08-19T09:52:30;17.73;;;16.13;;
3407;SDS011;1717;50.240;8.406;2022-08-19T09:54:57;19.47;;;17.57;;
3407;SDS011;1717;50.240;8.406;2022-08-19T09:57:25;18.80;;;17.00;;
3407;SDS011;1717;50.240;8.406;2022-08-19T09:59:52;20.27;;;17.93;;
3407;SDS011;1717;50.240;8.406;2022-08-19T10:02:19;21.93;;;19.73;;
3407;SDS011;1717;50.240;8.406;2022-08-19T10:04:46;22.40;;;19.30;;
3407;SDS011;1717;50.240;8.406;2022-08-19T10:07:30;20.30;;;18.30;;
3407;SDS011;1717;50.240;8.406;2022-08-19T10:09:57;20.63;;;18.60;;
3407;SDS011;1717;50.240;8.406;2022-08-19T10:12:25;19.40;;;17.53;;
3407;SDS011;1717;50.240;8.406;2022-08-19T10:14:53;22.07;;;19.97;;
3407;SDS011;1717;50.240;8.406;2022-08-19T10:17:20;20.90;;;18.73;;
3407;SDS011;1717;50.240;8.406;2022-08-19T10:19:47;22.10;;;20.00;;
3407;SDS011;1717;50.240;8.406;2022-08-19T10:22:14;20.50;;;18.57;;
3407;SDS011;1717;50.240;8.406;2022-08-19T10:24:41;22.30;;;20.07;;
3407;SDS011;1717;50.240;8.406;2022-08-19T10:27:08;20.83;;;18.80;;
3407;SDS011;1717;50.240;8.406;2022-08-19T10:29:36;20.57;;;18.70;;
3407;SDS011;1717;50.240;8.406;2022-08-19T10:32:03;21.10;;;18.90;;
3407;SDS011;1717;50.240;8.406;2022-08-19T10:34:32;20.30;;;18.50;;
3407;SDS011;1717;50.240;8.406;2022-08-19T10:37:00;20.53;;;18.60;;
3407;SDS011;1717;50.240;8.406;2022-08-19T10:39:27;21.00;;;18.87;;
3407;SDS011;1717;50.240;8.406;2022-08-19T10:41:54;19.30;;;17.40;;
3407;SDS011;1717;50.240;8.406;2022-08-19T10:44:22;18.20;;;16.40;;
3407;SDS011;1717;50.240;8.406;2022-08-19T10:46:50;18.87;;;17.07;;
3407;SDS011;1717;50.240;8.406;2022-08-19T10:49:17;17.23;;;15.60;;
3407;SDS011;1717;50.240;8.406;2022-08-19T10:51:45;17.37;;;15.57;;
3407;SDS011;1717;50.240;8.406;2022-08-19T10:54:29;17.80;;;16.10;;
3407;SDS011;1717;50.240;8.406;2022-08-19T10:57:12;17.80;;;16.07;;
3407;SDS011;1717;50.240;8.406;2022-08-19T10:59:39;16.53;;;14.90;;
3407;SDS011;1717;50.240;8.406;2022-08-19T11:02:08;17.47;;;15.90;;
3407;SDS011;1717;50.240;8.406;2022-08-19T11:04:37;16.80;;;15.30;;
3407;SDS011;1717;50.240;8.406;2022-08-19T11:07:05;17.90;;;16.20;;
3407;SDS011;1717;50.240;8.406;2022-08-19T11:09:36;17.80;;;16.07;;
3407;SDS011;1717;50.240;8.406;2022-08-19T11:12:04;16.40;;;14.70;;
3407;SDS011;1717;50.240;8.406;2022-08-19T11:14:33;16.87;;;15.10;;
3407;SDS011;1717;50.240;8.406;2022-08-19T11:17:00;16.23;;;14.53;;
3407;SDS011;1717;50.240;8.406;2022-08-19T11:19:30;16.13;;;14.60;;
3407;SDS011;1717;50.240;8.406;2022-08-19T11:21:57;14.30;;;13.00;;
3407;SDS011;1717;50.240;8.406;2022-08-19T11:24:27;14.07;;;12.77;;
3407;SDS011;1717;50.240;8.406;2022-08-19T11:26:58;14.60;;;13.20;;
3407;SDS011;1717;50.240;8.406;2022-08-19T11:29:29;13.23;;;12.03;;
3407;SDS011;1717;50.240;8.406;2022-08-19T11:31:56;12.03;;;10.93;;
3407;SDS011;1717;50.240;8.406;2022-08-19T11:34:25;13.30;;;12.00;;
3407;SDS011;1717;50.240;8.406;2022-08-19T11:36:55;11.53;;;10.43;;
3407;SDS011;1717;50.240;8.406;2022-08-19T11:39:24;12.97;;;10.87;;
3407;SDS011;1717;50.240;8.406;2022-08-19T11:41:52;11.20;;;10.20;;
3407;SDS011;1717;50.240;8.406;2022-08-19T11:44:19;12.73;;;11.53;;
3407;SDS011;1717;50.240;8.406;2022-08-19T11:46:46;12.00;;;11.00;;
3407;SDS011;1717;50.240;8.406;2022-08-19T11:49:14;11.57;;;10.57;;
3407;SDS011;1717;50.240;8.406;2022-08-19T11:51:43;11.03;;;10.03;;
3407;SDS011;1717;50.240;8.406;2022-08-19T11:54:12;10.93;;;9.80;;
3407;SDS011;1717;50.240;8.406;2022-08-19T11:56:41;10.37;;;9.50;;
3407;SDS011;1717;50.240;8.406;2022-08-19T11:59:10;10.00;;;9.10;;
3407;SDS011;1717;50.240;8.406;2022-08-19T12:01:37;11.20;;;10.20;;
3407;SDS011;1717;50.240;8.406;2022-08-19T12:04:06;9.50;;;8.50;;
3407;SDS011;1717;50.240;8.406;2022-08-19T12:06:33;9.77;;;8.87;;
3407;SDS011;1717;50.240;8.406;2022-08-19T12:09:04;10.13;;;9.23;;
3407;SDS011;1717;50.240;8.406;2022-08-19T12:11:33;10.27;;;9.20;;
3407;SDS011;1717;50.240;8.406;2022-08-19T12:14:02;9.37;;;8.57;;
3407;SDS011;1717;50.240;8.406;2022-08-19T12:16:29;10.00;;;9.10;;
3407;SDS011;1717;50.240;8.406;2022-08-19T12:18:57;9.57;;;8.77;;
3407;SDS011;1717;50.240;8.406;2022-08-19T12:21:29;9.57;;;8.67;;
3407;SDS011;1717;50.240;8.406;2022-08-19T12:23:57;9.27;;;8.47;;
3407;SDS011;1717;50.240;8.406;2022-08-19T12:26:25;9.47;;;8.70;;
3407;SDS011;1717;50.240;8.406;2022-08-19T12:28:55;8.97;;;8.27;;
3407;SDS011;1717;50.240;8.406;2022-08-19T12:31:23;8.90;;;8.10;;
3407;SDS011;1717;50.240;8.406;2022-08-19T12:33:50;10.03;;;8.93;;
3407;SDS011;1717;50.240;8.406;2022-08-19T12:36:18;9.47;;;8.60;;
3407;SDS011;1717;50.240;8.406;2022-08-19T12:38:46;9.20;;;8.37;;
3407;SDS011;1717;50.240;8.406;2022-08-19T12:41:14;8.73;;;7.93;;
3407;SDS011;1717;50.240;8.406;2022-08-19T12:43:43;8.57;;;7.87;;
3407;SDS011;1717;50.240;8.406;2022-08-19T12:46:11;10.53;;;9.63;;
3407;SDS011;1717;50.240;8.406;2022-08-19T12:48:39;8.13;;;7.53;;
3407;SDS011;1717;50.240;8.406;2022-08-19T12:51:08;9.40;;;8.50;;
3407;SDS011;1717;50.240;8.406;2022-08-19T12:53:37;8.23;;;7.60;;
3407;SDS011;1717;50.240;8.406;2022-08-19T12:56:05;8.40;;;7.70;;
3407;SDS011;1717;50.240;8.406;2022-08-19T12:58:33;8.07;;;7.27;;
3407;SDS011;1717;50.240;8.406;2022-08-19T13:01:05;8.27;;;7.67;;
3407;SDS011;1717;50.240;8.406;2022-08-19T13:03:34;8.37;;;7.60;;
3407;SDS011;1717;50.240;8.406;2022-08-19T13:06:01;7.90;;;7.40;;
3407;SDS011;1717;50.240;8.406;2022-08-19T13:08:28;7.33;;;6.70;;
3407;SDS011;1717;50.240;8.406;2022-08-19T13:10:55;7.40;;;6.90;;
3407;SDS011;1717;50.240;8.406;2022-08-19T13:13:23;8.13;;;7.33;;
3407;SDS011;1717;50.240;8.406;2022-08-19T13:15:51;7.20;;;6.60;;
3407;SDS011;1717;50.240;8.406;2022-08-19T13:18:18;7.50;;;7.00;;
3407;SDS011;1717;50.240;8.406;2022-08-19T13:20:46;7.77;;;7.10;;
3407;SDS011;1717;50.240;8.406;2022-08-19T13:23:13;9.80;;;7.10;;
3407;SDS011;1717;50.240;8.406;2022-08-19T13:25:40;8.00;;;7.40;;
3407;SDS011;1717;50.240;8.406;2022-08-19T13:28:07;6.80;;;6.30;;
3407;SDS011;1717;50.240;8.406;2022-08-19T13:30:33;7.10;;;6.60;;
3407;SDS011;1717;50.240;8.406;2022-08-19T13:33:18;6.90;;;6.20;;
3407;SDS011;1717;50.240;8.406;2022-08-19T13:35:47;7.40;;;6.80;;
3407;SDS011;1717;50.240;8.406;2022-08-19T13:38:22;7.70;;;6.97;;
3407;SDS011;1717;50.240;8.406;2022-08-19T13:40:50;6.80;;;6.30;;
3407;SDS011;1717;50.240;8.406;2022-08-19T13:43:18;6.23;;;5.63;;
3407;SDS011;1717;50.240;8.406;2022-08-19T13:45:45;6.30;;;5.80;;
3407;SDS011;1717;50.240;8.406;2022-08-19T13:48:12;6.13;;;5.70;;
3407;SDS011;1717;50.240;8.406;2022-08-19T13:50:41;6.17;;;5.77;;
3407;SDS011;1717;50.240;8.406;2022-08-19T13:53:13;6.33;;;5.83;;
3407;SDS011;1717;50.240;8.406;2022-08-19T13:55:40;6.07;;;5.67;;
3407;SDS011;1717;50.240;8.406;2022-08-19T13:58:09;6.47;;;6.07;;
3407;SDS011;1717;50.240;8.406;2022-08-19T14:00:37;6.43;;;5.93;;
3407;SDS011;1717;50.240;8.406;2022-08-19T14:03:06;6.87;;;6.30;;
3407;SDS011;1717;50.240;8.406;2022-08-19T14:05:33;7.03;;;6.10;;
3407;SDS011;1717;50.240;8.406;2022-08-19T14:08:00;7.57;;;6.87;;
3407;SDS011;1717;50.240;8.406;2022-08-19T14:10:28;7.10;;;6.60;;
3407;SDS011;1717;50.240;8.406;2022-08-19T14:12:57;8.70;;;6.30;;
3407;SDS011;1717;50.240;8.406;2022-08-19T14:15:26;7.20;;;6.60;;
3407;SDS011;1717;50.240;8.406;2022-08-19T14:17:54;6.20;;;5.70;;
3407;SDS011;1717;50.240;8.406;2022-08-19T14:20:21;7.83;;;7.23;;
3407;SDS011;1717;50.240;8.406;2022-08-19T14:22:48;6.87;;;6.13;;
3407;SDS011;1717;50.240;8.406;2022-08-19T14:25:16;6.90;;;6.10;;
3407;SDS011;1717;50.240;8.406;2022-08-19T14:27:46;6.20;;;5.70;;
3407;SDS011;1717;50.240;8.406;2022-08-19T14:30:15;7.33;;;6.73;;
3407;SDS011;1717;50.240;8.406;2022-08-19T14:32:44;6.60;;;6.10;;
3407;SDS011;1717;50.240;8.406;2022-08-19T14:35:11;8.80;;;6.50;;
3407;SDS011;1717;50.240;8.406;2022-08-19T14:37:40;7.00;;;6.50;;
3407;SDS011;1717;50.240;8.406;2022-08-19T14:40:09;7.10;;;6.40;;
3407;SDS011;1717;50.240;8.406;2022-08-19T14:42:37;7.73;;;6.97;;
3407;SDS011;1717;50.240;8.406;2022-08-19T14:45:06;7.33;;;6.83;;
3407;SDS011;1717;50.240;8.406;2022-08-19T14:47:34;6.80;;;6.20;;
3407;SDS011;1717;50.240;8.406;2022-08-19T14:50:03;7.13;;;6.53;;
3407;SDS011;1717;50.240;8.406;2022-08-19T14:52:32;7.43;;;6.83;;
3407;SDS011;1717;50.240;8.406;2022-08-19T14:54:59;5.83;;;5.43;;
3407;SDS011;1717;50.240;8.406;2022-08-19T14:57:26;7.40;;;6.63;;
3407;SDS011;1717;50.240;8.406;2022-08-19T14:59:52;5.80;;;5.40;;
3407;SDS011;1717;50.240;8.406;2022-08-19T15:02:21;6.67;;;6.07;;